createdAt,value
2017-07-30T00:00:40.648Z,21.36
2017-07-30T00:01:41.890Z,21.32
2017-07-30T00:02:43.123Z,21.34
2017-07-30T00:03:44.431Z,21.34
2017-07-30T00:04:45.724Z,21.27
2017-07-30T00:05:46.975Z,21.32
2017-07-30T00:06:48.218Z,21.29
2017-07-30T00:07:49.599Z,21.27
2017-07-30T00:08:50.835Z,21.35
2017-07-30T00:09:52.085Z,21.29
2017-07-30T00:10:53.317Z,21.35
2017-07-30T00:11:54.581Z,21.32
2017-07-30T00:12:55.927Z,21.35
2017-07-30T00:13:57.167Z,21.32
2017-07-30T00:14:58.482Z,21.35
2017-07-30T00:15:59.732Z,21.29
2017-07-30T00:17:00.972Z,21.35
2017-07-30T00:18:02.230Z,21.39
2017-07-30T00:19:03.470Z,21.38
2017-07-30T00:20:04.713Z,21.3
2017-07-30T00:21:05.949Z,21.42
2017-07-30T00:22:07.191Z,21.35
2017-07-30T00:23:08.470Z,21.42
2017-07-30T00:24:09.737Z,21.44
2017-07-30T00:25:11.062Z,21.45
2017-07-30T00:26:12.303Z,21.53
2017-07-30T00:27:13.544Z,21.57
2017-07-30T00:28:14.806Z,21.56
2017-07-30T00:29:16.164Z,21.64
2017-07-30T00:30:17.411Z,21.71
2017-07-30T00:31:18.668Z,21.75
2017-07-30T00:32:19.907Z,21.74
2017-07-30T00:33:21.176Z,21.74
2017-07-30T00:34:22.397Z,21.76
2017-07-30T00:35:23.645Z,21.82
2017-07-30T00:36:24.899Z,21.81
2017-07-30T00:37:26.203Z,21.88
2017-07-30T00:38:27.421Z,21.83
2017-07-30T00:39:28.661Z,21.92
2017-07-30T00:40:29.928Z,22.01
2017-07-30T00:41:31.176Z,22.01
2017-07-30T00:42:32.427Z,21.99
2017-07-30T00:43:33.686Z,22.06
2017-07-30T00:44:34.984Z,22.12
2017-07-30T00:45:36.239Z,22.1
2017-07-30T00:46:37.484Z,22.01
2017-07-30T00:47:38.727Z,21.91
2017-07-30T00:48:39.991Z,21.71
2017-07-30T00:49:41.237Z,21.69
2017-07-30T00:50:42.498Z,21.6
2017-07-30T00:51:43.803Z,21.53
2017-07-30T00:52:45.042Z,21.44
2017-07-30T00:53:46.287Z,21.42
2017-07-30T00:54:47.541Z,21.34
2017-07-30T00:55:48.763Z,21.36
2017-07-30T00:56:50.113Z,21.36
2017-07-30T00:57:51.357Z,21.32
2017-07-30T00:58:52.668Z,21.32
2017-07-30T00:59:53.913Z,21.27
2017-07-30T01:00:55.166Z,21.29
2017-07-30T01:01:56.467Z,21.23
2017-07-30T01:02:57.709Z,21.23
2017-07-30T01:03:58.952Z,21.2
2017-07-30T01:05:00.206Z,21.19
2017-07-30T01:06:01.466Z,21.17
2017-07-30T01:07:02.692Z,21.2
2017-07-30T01:08:03.969Z,21.26
2017-07-30T01:09:05.257Z,21.23
2017-07-30T01:10:06.522Z,21.16
2017-07-30T01:11:07.754Z,21.19
2017-07-30T01:12:08.992Z,21.17
2017-07-30T01:13:10.274Z,21.17
2017-07-30T01:14:11.537Z,21.11
2017-07-30T01:15:12.885Z,21.17
2017-07-30T01:16:14.108Z,21.06
2017-07-30T01:17:15.374Z,21.11
2017-07-30T01:18:16.607Z,21.14
2017-07-30T01:19:17.853Z,21.13
2017-07-30T01:20:19.108Z,21.05
2017-07-30T01:21:20.372Z,20.98
2017-07-30T01:22:21.616Z,21.05
2017-07-30T01:23:22.861Z,20.99
2017-07-30T01:24:24.163Z,20.95
2017-07-30T01:25:25.415Z,20.91
2017-07-30T01:26:26.676Z,20.98
2017-07-30T01:27:27.951Z,20.93
2017-07-30T01:28:29.240Z,20.91
2017-07-30T01:29:30.487Z,20.84
2017-07-30T01:30:31.734Z,20.87
2017-07-30T01:31:32.979Z,20.9
2017-07-30T01:32:34.283Z,20.96
2017-07-30T01:33:35.523Z,20.84
2017-07-30T01:34:36.806Z,20.95
2017-07-30T01:35:38.081Z,20.86
2017-07-30T01:36:39.322Z,20.89
2017-07-30T01:37:40.666Z,20.84
2017-07-30T01:38:41.919Z,20.74
2017-07-30T01:39:43.175Z,20.74
2017-07-30T01:40:44.421Z,20.68
2017-07-30T01:41:45.757Z,20.74
2017-07-30T01:42:46.993Z,20.74
2017-07-30T01:43:48.261Z,20.59
2017-07-30T01:44:49.709Z,20.65
2017-07-30T01:45:50.961Z,20.68
2017-07-30T01:46:52.212Z,20.65
2017-07-30T01:47:53.481Z,20.71
2017-07-30T01:48:54.726Z,20.64
2017-07-30T01:49:55.991Z,20.64
2017-07-30T01:50:57.222Z,20.68
2017-07-30T01:51:58.492Z,20.58
2017-07-30T01:52:59.761Z,20.61
2017-07-30T01:54:01.064Z,20.62
2017-07-30T01:55:02.324Z,20.76
2017-07-30T01:56:03.569Z,20.72
2017-07-30T01:57:04.813Z,20.74
2017-07-30T01:58:06.078Z,20.68
2017-07-30T01:59:07.317Z,20.77
2017-07-30T02:00:08.595Z,20.76
2017-07-30T02:01:09.836Z,20.69
2017-07-30T02:02:11.079Z,20.74
2017-07-30T02:03:12.367Z,20.69
2017-07-30T02:04:13.604Z,20.77
2017-07-30T02:05:14.881Z,20.76
2017-07-30T02:06:16.135Z,20.76
2017-07-30T02:07:17.393Z,20.77
2017-07-30T02:08:18.648Z,20.72
2017-07-30T02:09:19.891Z,20.76
2017-07-30T02:10:21.130Z,20.76
2017-07-30T02:11:22.418Z,20.74
2017-07-30T02:12:23.721Z,20.74
2017-07-30T02:13:24.958Z,20.69
2017-07-30T02:14:26.270Z,20.76
2017-07-30T02:15:27.497Z,20.76
2017-07-30T02:16:28.735Z,20.74
2017-07-30T02:17:30.013Z,20.74
2017-07-30T02:18:31.278Z,20.76
2017-07-30T02:19:32.511Z,20.71
2017-07-30T02:20:33.749Z,20.74
2017-07-30T02:21:34.987Z,20.72
2017-07-30T02:22:36.325Z,20.71
2017-07-30T02:23:37.564Z,20.71
2017-07-30T02:24:38.808Z,20.74
2017-07-30T02:25:40.048Z,20.74
2017-07-30T02:26:41.294Z,20.79
2017-07-30T02:27:42.549Z,20.72
2017-07-30T02:28:43.781Z,20.74
2017-07-30T02:29:45.041Z,20.74
2017-07-30T02:30:46.269Z,20.79
2017-07-30T02:31:47.513Z,20.72
2017-07-30T02:32:48.751Z,20.76
2017-07-30T02:33:50.034Z,20.71
2017-07-30T02:34:51.267Z,20.79
2017-07-30T02:35:52.514Z,20.72
2017-07-30T02:36:53.824Z,20.69
2017-07-30T02:37:55.070Z,20.72
2017-07-30T02:38:56.415Z,20.76
2017-07-30T02:39:57.650Z,20.74
2017-07-30T02:40:58.903Z,20.74
2017-07-30T02:42:00.160Z,20.79
2017-07-30T02:43:01.398Z,20.77
2017-07-30T02:44:02.734Z,20.72
2017-07-30T02:45:03.985Z,20.76
2017-07-30T02:46:05.225Z,20.72
2017-07-30T02:47:06.505Z,20.72
2017-07-30T02:48:07.716Z,20.74
2017-07-30T02:49:08.957Z,20.74
2017-07-30T02:50:10.217Z,20.76
2017-07-30T02:51:11.443Z,20.71
2017-07-30T02:52:12.902Z,20.77
2017-07-30T02:53:14.139Z,20.76
2017-07-30T02:54:15.382Z,20.77
2017-07-30T02:55:16.741Z,20.72
2017-07-30T02:56:17.963Z,20.74
2017-07-30T02:57:19.227Z,20.71
2017-07-30T02:58:20.520Z,20.72
2017-07-30T02:59:21.768Z,20.76
2017-07-30T03:00:23.003Z,20.76
2017-07-30T03:01:24.246Z,20.77
2017-07-30T03:02:25.485Z,20.72
2017-07-30T03:03:26.729Z,20.74
2017-07-30T03:04:27.973Z,20.86
2017-07-30T03:05:29.230Z,20.89
2017-07-30T03:06:30.471Z,20.86
2017-07-30T03:07:31.708Z,20.89
2017-07-30T03:08:32.958Z,20.87
2017-07-30T03:09:34.230Z,20.89
2017-07-30T03:10:35.453Z,20.96
2017-07-30T03:11:36.765Z,20.91
2017-07-30T03:12:38.006Z,20.99
2017-07-30T03:13:39.245Z,20.96
2017-07-30T03:14:40.485Z,20.93
2017-07-30T03:15:41.800Z,20.99
2017-07-30T03:16:43.131Z,20.99
2017-07-30T03:17:44.376Z,21.02
2017-07-30T03:18:45.619Z,20.93
2017-07-30T03:19:46.854Z,20.95
2017-07-30T03:20:48.103Z,20.99
2017-07-30T03:21:49.346Z,20.93
2017-07-30T03:22:50.623Z,20.98
2017-07-30T03:23:51.920Z,20.84
2017-07-30T03:24:53.163Z,20.87
2017-07-30T03:25:54.562Z,20.9
2017-07-30T03:26:55.794Z,20.86
2017-07-30T03:27:57.025Z,20.83
2017-07-30T03:28:58.266Z,20.86
2017-07-30T03:29:59.527Z,20.74
2017-07-30T03:31:00.751Z,20.74
2017-07-30T03:32:01.987Z,20.76
2017-07-30T03:33:03.240Z,20.74
2017-07-30T03:34:04.555Z,20.72
2017-07-30T03:35:05.834Z,20.71
2017-07-30T03:36:07.110Z,20.76
2017-07-30T03:37:08.364Z,20.71
2017-07-30T03:38:09.619Z,20.74
2017-07-30T03:39:10.849Z,20.8
2017-07-30T03:40:12.091Z,20.72
2017-07-30T03:41:13.329Z,20.79
2017-07-30T03:42:14.577Z,20.72
2017-07-30T03:43:15.858Z,20.76
2017-07-30T03:44:17.093Z,20.8
2017-07-30T03:45:18.382Z,20.76
2017-07-30T03:46:19.627Z,20.77
2017-07-30T03:47:20.945Z,20.87
2017-07-30T03:48:22.209Z,20.83
2017-07-30T03:49:23.561Z,20.81
2017-07-30T03:50:24.782Z,20.89
2017-07-30T03:51:26.031Z,20.91
2017-07-30T03:52:27.267Z,20.96
2017-07-30T03:53:28.528Z,20.91
2017-07-30T03:54:29.788Z,20.95
2017-07-30T03:55:31.034Z,20.9
2017-07-30T03:56:32.272Z,20.86
2017-07-30T03:57:33.518Z,20.93
2017-07-30T03:58:34.761Z,20.95
2017-07-30T03:59:36.010Z,20.96
2017-07-30T04:00:37.247Z,20.95
2017-07-30T04:01:38.493Z,21.01
2017-07-30T04:02:39.728Z,20.96
2017-07-30T04:03:40.966Z,20.96
2017-07-30T04:04:42.280Z,21.02
2017-07-30T04:05:43.516Z,20.96
2017-07-30T04:06:44.836Z,21.01
2017-07-30T04:07:46.117Z,21.01
2017-07-30T04:08:47.476Z,21.06
2017-07-30T04:09:48.729Z,21.04
2017-07-30T04:10:49.954Z,21.04
2017-07-30T04:11:51.192Z,21.08
2017-07-30T04:12:52.430Z,21.09
2017-07-30T04:13:53.690Z,21.19
2017-07-30T04:14:54.896Z,21.09
2017-07-30T04:15:56.125Z,21.19
2017-07-30T04:16:57.572Z,21.11
2017-07-30T04:17:58.822Z,21.17
2017-07-30T04:19:00.146Z,21.14
2017-07-30T04:20:01.374Z,21.19
2017-07-30T04:21:02.698Z,21.14
2017-07-30T04:22:03.940Z,21.13
2017-07-30T04:23:05.178Z,21.16
2017-07-30T04:24:06.537Z,21.17
2017-07-30T04:25:07.788Z,21.14
2017-07-30T04:26:09.025Z,21.14
2017-07-30T04:27:10.268Z,21.17
2017-07-30T04:28:11.509Z,21.23
2017-07-30T04:29:12.756Z,21.21
2017-07-30T04:30:14.005Z,21.19
2017-07-30T04:31:15.310Z,21.3
2017-07-30T04:32:16.559Z,21.21
2017-07-30T04:33:17.790Z,21.2
2017-07-30T04:34:19.048Z,21.21
2017-07-30T04:35:20.326Z,21.24
2017-07-30T04:36:21.594Z,21.2
2017-07-30T04:37:22.875Z,21.26
2017-07-30T04:38:24.153Z,21.27
2017-07-30T04:39:25.388Z,21.2
2017-07-30T04:40:26.613Z,21.3
2017-07-30T04:41:27.854Z,21.29
2017-07-30T04:42:29.092Z,21.27
2017-07-30T04:43:30.450Z,21.24
2017-07-30T04:44:31.679Z,21.34
2017-07-30T04:45:32.919Z,21.3
2017-07-30T04:46:34.158Z,21.29
2017-07-30T04:47:35.399Z,21.29
2017-07-30T04:48:36.638Z,21.32
2017-07-30T04:49:37.998Z,21.35
2017-07-30T04:50:39.262Z,21.35
2017-07-30T04:51:40.586Z,21.35
2017-07-30T04:52:41.823Z,21.42
2017-07-30T04:53:43.061Z,21.41
2017-07-30T04:54:44.403Z,21.39
2017-07-30T04:55:45.645Z,21.38
2017-07-30T04:56:46.890Z,21.44
2017-07-30T04:57:48.151Z,21.44
2017-07-30T04:58:49.397Z,21.45
2017-07-30T04:59:50.631Z,21.53
2017-07-30T05:00:51.868Z,21.54
2017-07-30T05:01:53.126Z,21.59
2017-07-30T05:02:54.442Z,21.57
2017-07-30T05:03:55.693Z,21.66
2017-07-30T05:04:56.904Z,21.72
2017-07-30T05:05:58.143Z,21.64
2017-07-30T05:06:59.408Z,21.79
2017-07-30T05:08:00.641Z,21.74
2017-07-30T05:09:01.955Z,21.71
2017-07-30T05:10:03.267Z,21.72
2017-07-30T05:11:04.510Z,21.74
2017-07-30T05:12:05.756Z,21.83
2017-07-30T05:13:06.994Z,21.91
2017-07-30T05:14:08.357Z,21.92
2017-07-30T05:15:09.642Z,21.9
2017-07-30T05:16:10.917Z,21.94
2017-07-30T05:17:12.172Z,22.01
2017-07-30T05:18:13.412Z,22.12
2017-07-30T05:19:14.672Z,22.16
2017-07-30T05:20:16.163Z,22.16
2017-07-30T05:21:17.456Z,22.22
2017-07-30T05:22:18.773Z,22.22
2017-07-30T05:23:20.018Z,22.32
2017-07-30T05:24:21.264Z,22.34
2017-07-30T05:25:22.516Z,22.38
2017-07-30T05:26:23.755Z,22.39
2017-07-30T05:27:24.994Z,22.47
2017-07-30T05:28:26.398Z,22.52
2017-07-30T05:29:27.641Z,22.53
2017-07-30T05:30:28.879Z,22.56
2017-07-30T05:31:30.119Z,22.59
2017-07-30T05:32:31.361Z,22.71
2017-07-30T05:33:32.691Z,22.77
2017-07-30T05:34:33.938Z,22.72
2017-07-30T05:35:35.185Z,22.8
2017-07-30T05:36:36.436Z,22.8
2017-07-30T05:37:37.679Z,22.82
2017-07-30T05:38:38.932Z,22.89
2017-07-30T05:39:40.187Z,22.83
2017-07-30T05:40:41.423Z,22.86
2017-07-30T05:41:42.669Z,22.89
2017-07-30T05:42:43.908Z,22.96
2017-07-30T05:43:45.151Z,23.01
2017-07-30T05:44:46.378Z,22.96
2017-07-30T05:45:47.646Z,23.05
2017-07-30T05:46:48.874Z,23.09
2017-07-30T05:47:50.124Z,23.07
2017-07-30T05:48:51.549Z,23.19
2017-07-30T05:49:52.783Z,23.23
2017-07-30T05:50:54.096Z,23.29
2017-07-30T05:51:55.329Z,23.47
2017-07-30T05:52:56.580Z,23.46
2017-07-30T05:53:57.845Z,23.43
2017-07-30T05:54:59.088Z,23.53
2017-07-30T05:56:00.335Z,23.53
2017-07-30T05:57:01.603Z,23.55
2017-07-30T05:58:02.855Z,23.58
2017-07-30T05:59:04.205Z,23.6
2017-07-30T06:00:05.453Z,23.7
2017-07-30T06:01:06.684Z,23.57
2017-07-30T06:02:07.923Z,23.64
2017-07-30T06:03:09.164Z,23.62
2017-07-30T06:04:10.429Z,23.72
2017-07-30T06:05:11.784Z,23.7
2017-07-30T06:06:13.016Z,23.71
2017-07-30T06:07:14.256Z,23.76
2017-07-30T06:08:15.507Z,23.82
2017-07-30T06:09:16.843Z,23.85
2017-07-30T06:10:18.128Z,23.95
2017-07-30T06:11:19.370Z,24.01
2017-07-30T06:12:20.612Z,24.13
2017-07-30T06:13:21.846Z,24.22
2017-07-30T06:14:23.088Z,24.29
2017-07-30T06:15:24.414Z,24.41
2017-07-30T06:16:25.681Z,24.54
2017-07-30T06:17:26.899Z,24.63
2017-07-30T06:18:28.146Z,24.75
2017-07-30T06:19:29.387Z,24.67
2017-07-30T06:20:30.730Z,24.83
2017-07-30T06:21:31.964Z,24.83
2017-07-30T06:22:33.208Z,24.83
2017-07-30T06:23:34.451Z,25.01
2017-07-30T06:24:35.690Z,25.28
2017-07-30T06:25:36.947Z,25.49
2017-07-30T06:26:38.382Z,25.61
2017-07-30T06:27:39.621Z,25.61
2017-07-30T06:28:40.857Z,25.49
2017-07-30T06:29:42.162Z,25.57
2017-07-30T06:30:43.688Z,25.57
2017-07-30T06:31:44.935Z,25.68
2017-07-30T06:32:46.176Z,26.2
2017-07-30T06:33:47.415Z,26.72
2017-07-30T06:34:48.700Z,27.42
2017-07-30T06:35:50.043Z,28.19
2017-07-30T06:36:51.282Z,28.95
2017-07-30T06:37:52.560Z,29.6
2017-07-30T06:38:53.770Z,30.36
2017-07-30T06:39:55.007Z,31.06
2017-07-30T06:40:56.283Z,31.72
2017-07-30T06:41:57.538Z,31.8
2017-07-30T06:42:58.778Z,31.58
2017-07-30T06:44:00.019Z,31.55
2017-07-30T06:45:01.278Z,31.77
2017-07-30T06:46:02.569Z,31.12
2017-07-30T06:47:03.831Z,31.42
2017-07-30T06:48:05.095Z,31.91
2017-07-30T06:49:06.333Z,32.2
2017-07-30T06:50:07.609Z,32.85
2017-07-30T06:51:08.847Z,32.79
2017-07-30T06:52:10.146Z,32.95
2017-07-30T06:53:11.403Z,33.01
2017-07-30T06:54:12.652Z,32.88
2017-07-30T06:55:13.920Z,32.43
2017-07-30T06:56:15.146Z,31.99
2017-07-30T06:57:16.393Z,31.68
2017-07-30T06:58:17.823Z,31.39
2017-07-30T06:59:19.163Z,31.17
2017-07-30T07:00:20.408Z,31.13
2017-07-30T07:01:21.679Z,31.13
2017-07-30T07:02:22.918Z,30.8
2017-07-30T07:03:24.153Z,31.05
2017-07-30T07:04:25.407Z,31.05
2017-07-30T07:05:26.674Z,31.18
2017-07-30T07:06:27.958Z,31.28
2017-07-30T07:07:29.311Z,31.05
2017-07-30T07:08:30.586Z,30.78
2017-07-30T07:09:31.829Z,30.38
2017-07-30T07:10:33.074Z,30.4
2017-07-30T07:11:34.338Z,30.34
2017-07-30T07:12:35.566Z,30.24
2017-07-30T07:13:36.825Z,29.99
2017-07-30T07:14:38.074Z,29.86
2017-07-30T07:15:39.339Z,29.79
2017-07-30T07:16:40.582Z,29.93
2017-07-30T07:17:41.834Z,30.08
2017-07-30T07:18:43.087Z,30.24
2017-07-30T07:19:44.330Z,30.61
2017-07-30T07:20:45.602Z,30.76
2017-07-30T07:21:46.830Z,30.76
2017-07-30T07:22:48.097Z,30.76
2017-07-30T07:23:49.329Z,30.75
2017-07-30T07:24:50.585Z,30.8
2017-07-30T07:25:51.834Z,30.67
2017-07-30T07:26:53.085Z,30.78
2017-07-30T07:27:54.341Z,30.75
2017-07-30T07:28:55.591Z,30.81
2017-07-30T07:29:56.879Z,30.8
2017-07-30T07:30:58.253Z,30.54
2017-07-30T07:31:59.476Z,30.53
2017-07-30T07:33:00.971Z,30.49
2017-07-30T07:34:02.212Z,30.68
2017-07-30T07:35:03.454Z,30.72
2017-07-30T07:36:04.787Z,30.98
2017-07-30T07:37:06.036Z,31.4
2017-07-30T07:38:07.292Z,31.54
2017-07-30T07:39:08.631Z,31.57
2017-07-30T07:40:09.885Z,31.67
2017-07-30T07:41:11.141Z,31.82
2017-07-30T07:42:12.432Z,31.98
2017-07-30T07:43:13.687Z,32.03
2017-07-30T07:44:14.952Z,32
2017-07-30T07:45:16.194Z,32.06
2017-07-30T07:46:17.444Z,31.79
2017-07-30T07:47:18.689Z,31.13
2017-07-30T07:48:19.942Z,30.76
2017-07-30T07:49:21.193Z,30.07
2017-07-30T07:50:22.531Z,29.63
2017-07-30T07:51:23.789Z,29.33
2017-07-30T07:52:25.031Z,29.15
2017-07-30T07:53:26.278Z,29
2017-07-30T07:54:27.528Z,29.04
2017-07-30T07:55:28.809Z,29.06
2017-07-30T07:56:30.136Z,29.07
2017-07-30T07:57:31.393Z,28.85
2017-07-30T07:58:32.663Z,28.72
2017-07-30T07:59:33.922Z,28.53
2017-07-30T08:00:35.222Z,28.4
2017-07-30T08:01:36.534Z,28.22
2017-07-30T08:02:37.812Z,27.95
2017-07-30T08:03:39.042Z,27.79
2017-07-30T08:04:40.288Z,27.62
2017-07-30T08:05:41.528Z,27.47
2017-07-30T08:06:42.835Z,27.54
2017-07-30T08:07:44.078Z,27.48
2017-07-30T08:08:45.329Z,27.62
2017-07-30T08:09:46.596Z,27.64
2017-07-30T08:10:47.835Z,27.73
2017-07-30T08:11:49.084Z,27.79
2017-07-30T08:12:50.389Z,27.89
2017-07-30T08:13:51.618Z,27.99
2017-07-30T08:14:52.860Z,28.14
2017-07-30T08:15:54.107Z,28.47
2017-07-30T08:16:55.349Z,28.8
2017-07-30T08:17:56.608Z,29.1
2017-07-30T08:18:57.849Z,29.22
2017-07-30T08:19:59.174Z,29.34
2017-07-30T08:21:00.470Z,29.45
2017-07-30T08:22:01.838Z,29.25
2017-07-30T08:23:02.963Z,29.29
2017-07-30T08:24:04.212Z,29.59
2017-07-30T08:25:05.460Z,29.93
2017-07-30T08:26:06.708Z,30.27
2017-07-30T08:27:07.990Z,30.15
2017-07-30T08:28:09.289Z,30.05
2017-07-30T08:29:10.625Z,29.81
2017-07-30T08:30:11.901Z,29.57
2017-07-30T08:31:13.128Z,29.45
2017-07-30T08:32:14.415Z,29.52
2017-07-30T08:33:15.656Z,29.56
2017-07-30T08:34:16.991Z,29.45
2017-07-30T08:35:18.251Z,29.55
2017-07-30T08:36:19.474Z,29.23
2017-07-30T08:37:20.711Z,29.22
2017-07-30T08:38:21.980Z,29.19
2017-07-30T08:39:23.255Z,29.16
2017-07-30T08:40:24.511Z,29.25
2017-07-30T08:41:25.764Z,29.18
2017-07-30T08:42:27.009Z,29.04
2017-07-30T08:43:28.299Z,29.04
2017-07-30T08:44:29.555Z,29.18
2017-07-30T08:45:30.872Z,29.29
2017-07-30T08:46:32.193Z,29.25
2017-07-30T08:47:33.428Z,29.34
2017-07-30T08:48:34.688Z,29.44
2017-07-30T08:49:35.912Z,29.56
2017-07-30T08:50:37.169Z,29.62
2017-07-30T08:51:38.495Z,29.52
2017-07-30T08:52:39.865Z,29.45
2017-07-30T08:53:40.996Z,29.44
2017-07-30T08:54:42.243Z,29.43
2017-07-30T08:55:43.486Z,29.52
2017-07-30T08:56:44.750Z,29.78
2017-07-30T08:57:46.008Z,29.97
2017-07-30T08:58:47.257Z,29.75
2017-07-30T08:59:48.525Z,29.82
2017-07-30T09:00:49.754Z,29.96
2017-07-30T09:01:51.004Z,30.11
2017-07-30T09:02:52.252Z,30.08
2017-07-30T09:03:53.494Z,30.08
2017-07-30T09:04:54.821Z,29.84
2017-07-30T09:05:56.063Z,29.47
2017-07-30T09:06:57.307Z,29.22
2017-07-30T09:07:58.550Z,29.03
2017-07-30T09:08:59.803Z,28.56
2017-07-30T09:10:01.170Z,28.4
2017-07-30T09:11:02.399Z,28.19
2017-07-30T09:12:03.646Z,27.85
2017-07-30T09:13:05.006Z,27.77
2017-07-30T09:14:06.254Z,27.61
2017-07-30T09:15:07.508Z,27.58
2017-07-30T09:16:08.841Z,27.42
2017-07-30T09:17:10.180Z,27.47
2017-07-30T09:18:11.431Z,27.32
2017-07-30T09:19:12.678Z,27.29
2017-07-30T09:20:13.934Z,27.31
2017-07-30T09:21:15.182Z,27.29
2017-07-30T09:22:16.455Z,27.38
2017-07-30T09:23:17.680Z,27.42
2017-07-30T09:24:18.931Z,27.48
2017-07-30T09:25:20.168Z,27.76
2017-07-30T09:26:21.411Z,28.01
2017-07-30T09:27:22.666Z,28.32
2017-07-30T09:28:23.905Z,28.35
2017-07-30T09:29:25.198Z,28.31
2017-07-30T09:30:26.533Z,28.44
2017-07-30T09:31:27.782Z,28.47
2017-07-30T09:32:29.033Z,28.62
2017-07-30T09:33:30.310Z,28.59
2017-07-30T09:34:31.553Z,28.69
2017-07-30T09:35:32.863Z,28.84
2017-07-30T09:36:34.121Z,29
2017-07-30T09:37:35.372Z,29.4
2017-07-30T09:38:36.624Z,29.94
2017-07-30T09:39:37.868Z,30.56
2017-07-30T09:40:39.111Z,30.9
2017-07-30T09:41:40.478Z,31.39
2017-07-30T09:42:41.858Z,31.92
2017-07-30T09:43:42.988Z,32.18
2017-07-30T09:44:44.226Z,32.11
2017-07-30T09:45:45.474Z,32.27
2017-07-30T09:46:46.755Z,32.66
2017-07-30T09:47:48.054Z,33.15
2017-07-30T09:48:49.322Z,33.67
2017-07-30T09:49:50.634Z,34.23
2017-07-30T09:50:51.879Z,34.57
2017-07-30T09:51:53.137Z,34.96
2017-07-30T09:52:54.386Z,35.11
2017-07-30T09:53:55.645Z,34.94
2017-07-30T09:54:56.976Z,34.29
2017-07-30T09:55:58.229Z,33.7
2017-07-30T09:56:59.493Z,32.93
2017-07-30T09:58:00.743Z,32.39
2017-07-30T09:59:02.001Z,31.88
2017-07-30T10:00:03.258Z,31.46
2017-07-30T10:01:04.610Z,31.27
2017-07-30T10:02:05.859Z,31.15
2017-07-30T10:03:07.106Z,31.05
2017-07-30T10:04:08.369Z,30.91
2017-07-30T10:05:09.618Z,30.94
2017-07-30T10:06:10.887Z,30.87
2017-07-30T10:07:12.248Z,30.74
2017-07-30T10:08:13.493Z,30.91
2017-07-30T10:09:14.834Z,31.39
2017-07-30T10:10:16.085Z,31.98
2017-07-30T10:11:17.336Z,32.66
2017-07-30T10:12:18.588Z,33.11
2017-07-30T10:13:19.970Z,33.52
2017-07-30T10:14:21.217Z,33.71
2017-07-30T10:15:22.468Z,33.33
2017-07-30T10:16:23.707Z,33.36
2017-07-30T10:17:25.087Z,33.58
2017-07-30T10:18:26.383Z,33.64
2017-07-30T10:19:27.649Z,33.8
2017-07-30T10:20:28.890Z,33.67
2017-07-30T10:21:30.150Z,33.79
2017-07-30T10:22:31.407Z,33.31
2017-07-30T10:23:32.778Z,32.88
2017-07-30T10:24:34.139Z,32.37
2017-07-30T10:25:35.391Z,31.76
2017-07-30T10:26:36.678Z,31.26
2017-07-30T10:27:37.920Z,31.02
2017-07-30T10:28:39.183Z,30.78
2017-07-30T10:29:40.454Z,30.75
2017-07-30T10:30:41.727Z,30.64
2017-07-30T10:31:42.999Z,30.83
2017-07-30T10:32:44.247Z,30.86
2017-07-30T10:33:45.489Z,30.68
2017-07-30T10:34:46.762Z,30.71
2017-07-30T10:35:48.125Z,30.54
2017-07-30T10:36:49.349Z,30.33
2017-07-30T10:37:50.609Z,30.29
2017-07-30T10:38:51.848Z,30.23
2017-07-30T10:39:53.091Z,29.93
2017-07-30T10:40:54.386Z,29.52
2017-07-30T10:41:55.635Z,29.26
2017-07-30T10:42:56.921Z,29.03
2017-07-30T10:43:58.169Z,28.84
2017-07-30T10:44:59.415Z,28.78
2017-07-30T10:46:00.696Z,28.81
2017-07-30T10:47:01.915Z,28.91
2017-07-30T10:48:03.178Z,28.87
2017-07-30T10:49:04.414Z,28.87
2017-07-30T10:50:05.665Z,29.15
2017-07-30T10:51:06.915Z,29.23
2017-07-30T10:52:08.152Z,29.47
2017-07-30T10:53:09.404Z,29.74
2017-07-30T10:54:10.783Z,29.96
2017-07-30T10:55:12.135Z,30.12
2017-07-30T10:56:13.317Z,30.23
2017-07-30T10:57:14.561Z,30.38
2017-07-30T10:58:15.804Z,30.68
2017-07-30T10:59:17.103Z,30.74
2017-07-30T11:00:18.354Z,30.64
2017-07-30T11:01:19.606Z,30.61
2017-07-30T11:02:20.861Z,30.53
2017-07-30T11:03:22.115Z,30.67
2017-07-30T11:04:23.368Z,30.71
2017-07-30T11:05:24.619Z,30.81
2017-07-30T11:06:25.891Z,30.93
2017-07-30T11:07:27.151Z,30.91
2017-07-30T11:08:28.398Z,31.12
2017-07-30T11:09:29.751Z,31.26
2017-07-30T11:10:31.000Z,31.17
2017-07-30T11:11:32.253Z,31.39
2017-07-30T11:12:33.496Z,31.39
2017-07-30T11:13:34.861Z,31.38
2017-07-30T11:14:36.104Z,31.26
2017-07-30T11:15:37.347Z,31.28
2017-07-30T11:16:38.840Z,31.2
2017-07-30T11:17:40.140Z,31.53
2017-07-30T11:18:41.444Z,31.45
2017-07-30T11:19:42.739Z,31.4
2017-07-30T11:20:43.984Z,31.26
2017-07-30T11:21:45.221Z,31.2
2017-07-30T11:22:46.484Z,30.93
2017-07-30T11:23:47.731Z,30.76
2017-07-30T11:24:48.977Z,30.74
2017-07-30T11:25:50.250Z,30.47
2017-07-30T11:26:51.500Z,30.31
2017-07-30T11:27:52.748Z,30.27
2017-07-30T11:28:53.987Z,30.29
2017-07-30T11:29:55.278Z,30.14
2017-07-30T11:30:56.637Z,30.05
2017-07-30T11:31:57.869Z,30.03
2017-07-30T11:32:59.141Z,30.05
2017-07-30T11:34:00.387Z,30.08
2017-07-30T11:35:01.628Z,30.03
2017-07-30T11:36:02.921Z,30.09
2017-07-30T11:37:04.167Z,30.02
2017-07-30T11:38:05.418Z,29.82
2017-07-30T11:39:06.666Z,29.53
2017-07-30T11:40:07.914Z,29.31
2017-07-30T11:41:09.169Z,29.31
2017-07-30T11:42:10.413Z,29.33
2017-07-30T11:43:11.665Z,29.44
2017-07-30T11:44:13.185Z,29.38
2017-07-30T11:45:14.438Z,29.29
2017-07-30T11:46:15.678Z,29.13
2017-07-30T11:47:16.921Z,29.15
2017-07-30T11:48:18.370Z,28.87
2017-07-30T11:49:19.631Z,28.81
2017-07-30T11:50:20.892Z,28.85
2017-07-30T11:51:22.142Z,28.58
2017-07-30T11:52:23.394Z,28.58
2017-07-30T11:53:24.623Z,28.51
2017-07-30T11:54:25.886Z,28.44
2017-07-30T11:55:27.203Z,28.32
2017-07-30T11:56:28.442Z,28.25
2017-07-30T11:57:29.709Z,28.19
2017-07-30T11:58:30.942Z,28.14
2017-07-30T11:59:32.190Z,28.07
2017-07-30T12:00:33.428Z,28.06
2017-07-30T12:01:34.902Z,27.99
2017-07-30T12:02:36.156Z,27.91
2017-07-30T12:03:37.397Z,27.79
2017-07-30T12:04:38.904Z,27.76
2017-07-30T12:05:40.171Z,27.62
2017-07-30T12:06:41.442Z,27.67
2017-07-30T12:07:42.759Z,27.66
2017-07-30T12:08:44.002Z,27.53
2017-07-30T12:09:45.249Z,27.57
2017-07-30T12:10:46.616Z,27.5
2017-07-30T12:11:47.862Z,27.62
2017-07-30T12:12:49.108Z,27.66
2017-07-30T12:13:50.417Z,27.61
2017-07-30T12:14:51.675Z,27.58
2017-07-30T12:15:52.913Z,27.54
2017-07-30T12:16:54.282Z,27.66
2017-07-30T12:17:55.749Z,27.66
2017-07-30T12:18:57.040Z,27.53
2017-07-30T12:19:58.292Z,27.53
2017-07-30T12:20:59.549Z,27.62
2017-07-30T12:22:00.850Z,27.71
2017-07-30T12:23:02.083Z,27.79
2017-07-30T12:24:03.357Z,27.76
2017-07-30T12:25:04.615Z,27.89
2017-07-30T12:26:05.914Z,28.04
2017-07-30T12:27:07.160Z,27.92
2017-07-30T12:28:08.400Z,27.96
2017-07-30T12:29:09.652Z,28.04
2017-07-30T12:30:10.906Z,28.11
2017-07-30T12:31:12.315Z,28.04
2017-07-30T12:32:13.560Z,28.1
2017-07-30T12:33:14.826Z,28.04
2017-07-30T12:34:16.050Z,28.17
2017-07-30T12:35:17.311Z,28.36
2017-07-30T12:36:18.666Z,28.36
2017-07-30T12:37:19.909Z,28.53
2017-07-30T12:38:21.214Z,28.5
2017-07-30T12:39:22.464Z,28.53
2017-07-30T12:40:23.715Z,28.41
2017-07-30T12:41:25.045Z,28.5
2017-07-30T12:42:26.367Z,28.59
2017-07-30T12:43:27.603Z,28.53
2017-07-30T12:44:28.852Z,28.43
2017-07-30T12:45:30.113Z,28.41
2017-07-30T12:46:31.370Z,28.33
2017-07-30T12:47:32.625Z,28.35
2017-07-30T12:48:33.888Z,28.4
2017-07-30T12:49:35.177Z,28.43
2017-07-30T12:50:36.432Z,28.36
2017-07-30T12:51:37.675Z,28.38
2017-07-30T12:52:39.006Z,28.4
2017-07-30T12:53:40.357Z,28.22
2017-07-30T12:54:41.616Z,28.17
2017-07-30T12:55:42.901Z,28.25
2017-07-30T12:56:44.148Z,28.13
2017-07-30T12:57:45.400Z,28.19
2017-07-30T12:58:46.734Z,28.31
2017-07-30T12:59:47.983Z,28.19
2017-07-30T13:00:49.224Z,28.16
2017-07-30T13:01:50.585Z,28.06
2017-07-30T13:02:51.841Z,28.06
2017-07-30T13:03:53.089Z,27.89
2017-07-30T13:04:54.354Z,27.88
2017-07-30T13:05:55.604Z,27.82
2017-07-30T13:06:56.944Z,27.74
2017-07-30T13:07:58.176Z,27.77
2017-07-30T13:08:59.421Z,27.76
2017-07-30T13:10:00.719Z,27.79
2017-07-30T13:11:01.963Z,27.71